Time,TemperatureF,DewpointF,PressureIn,WindDirection,WindDirectionDegrees,WindSpeedMPH,WindSpeedGustMPH,Humidity,HourlyPrecipIn,Conditions,Clouds,dailyrainin,SoftwareType,DateUTC
2013-02-08 00:11:00,32.0,-99.9,29.90,NW,313,20.0,25.0,-999,-99.99,,,-99.99,,2013-02-08 06:11:00,
2013-02-08 00:22:00,32.0,-99.9,29.90,NW,313,20.0,25.0,-999,-99.99,,,-99.99,,2013-02-08 06:22:00,
2013-02-08 00:32:00,32.0,-99.9,29.90,NW,313,20.0,25.0,-999,-99.99,,,-99.99,,2013-02-08 06:32:00,
2013-02-08 00:42:00,32.0,-99.9,29.90,NW,313,20.0,25.0,-999,-99.99,,,-99.99,,2013-02-08 06:42:00,
2013-02-08 01:12:00,33.0,-99.9,29.90,NW,320,25.0,29.0,-999,-99.99,,,-99.99,,2013-02-08 07:12:00,
2013-02-08 01:22:00,33.0,-99.9,29.90,NW,320,25.0,29.0,-999,-99.99,,,-99.99,,2013-02-08 07:22:00,
2013-02-08 01:32:00,32.0,-99.9,29.91,NW,325,24.0,0.0,-999,-99.99,,,-99.99,,2013-02-08 07:32:00,
2013-02-08 01:42:00,32.0,-99.9,29.91,NW,325,24.0,0.0,-999,-99.99,,,-99.99,,2013-02-08 07:42:00,
2013-02-08 01:52:00,32.0,-99.9,29.91,NW,325,24.0,0.0,-999,-99.99,,,-99.99,,2013-02-08 07:52:00,
2013-02-08 02:01:00,32.0,-99.9,30.53,NW,325,24.0,0.0,-999,-99.99,,,-99.99,,2013-02-08 08:01:00,
2013-02-08 02:12:00,31.0,-99.9,31.45,NNE,23,-999.0,-999.0,-999,-99.99,,,-99.99,,2013-02-08 08:12:00,
2013-02-08 02:22:00,31.0,-99.9,31.45,NNE,23,-999.0,-999.0,-999,-99.99,,,-99.99,,2013-02-08 08:22:00,
2013-02-08 02:32:00,32.0,-99.9,30.55,NNW,329,27.0,0.0,-999,-99.99,,,-99.99,,2013-02-08 08:32:00,
2013-02-08 02:42:00,32.0,-99.9,30.55,NNW,329,27.0,0.0,-999,-99.99,,,-99.99,,2013-02-08 08:42:00,
2013-02-08 02:52:00,32.0,-99.9,29.93,NNW,329,27.0,0.0,-999,-99.99,,,-99.99,,2013-02-08 08:52:00,
2013-02-08 03:00:00,31.0,-99.9,29.97,NW,321,26.0,0.0,-999,-99.99,,,-99.99,,2013-02-08 09:00:00,
2013-02-08 03:03:00,32.0,-99.9,30.55,NNW,329,27.0,0.0,-999,-99.99,,,-99.99,,2013-02-08 09:03:00,
2013-02-08 03:11:00,31.0,-99.9,29.96,NW,326,23.0,32.0,-999,-99.99,,,-99.99,,2013-02-08 09:11:00,
2013-02-08 03:22:00,31.0,-99.9,30.59,NW,321,26.0,0.0,-999,-99.99,,,-99.99,,2013-02-08 09:22:00,
2013-02-08 03:32:00,31.0,-99.9,29.97,NW,321,26.0,0.0,-999,-99.99,,,-99.99,,2013-02-08 09:32:00,
2013-02-08 03:42:00,31.0,-99.9,29.97,NW,321,26.0,0.0,-999,-99.99,,,-99.99,,2013-02-08 09:42:00,
2013-02-08 03:52:00,31.0,-99.9,29.97,NW,321,26.0,0.0,-999,-99.99,,,-99.99,,2013-02-08 09:52:00,
2013-02-08 04:12:00,30.0,-99.9,30.00,NW,315,30.0,36.0,-999,-99.99,,,-99.99,,2013-02-08 10:12:00,
2013-02-08 04:22:00,30.0,-99.9,30.00,NW,315,30.0,36.0,-999,-99.99,,,-99.99,,2013-02-08 10:22:00,
2013-02-08 04:32:00,30.0,-99.9,30.00,NW,315,30.0,36.0,-999,-99.99,,,-99.99,,2013-02-08 10:32:00,
2013-02-08 04:42:00,30.0,-99.9,30.00,NW,315,30.0,36.0,-999,-99.99,,,-99.99,,2013-02-08 10:42:00,
2013-02-08 04:52:00,30.0,-99.9,30.63,NW,318,26.0,0.0,-999,-99.99,,,-99.99,,2013-02-08 10:52:00,
2013-02-08 05:02:00,30.0,-99.9,30.01,NW,318,26.0,0.0,-999,-99.99,,,-99.99,,2013-02-08 11:02:00,
2013-02-08 05:11:00,30.0,-99.9,30.65,NW,326,28.0,36.0,-999,-99.99,,,-99.99,,2013-02-08 11:11:00,
2013-02-08 05:22:00,30.0,-99.9,30.03,NW,326,28.0,36.0,-999,-99.99,,,-99.99,,2013-02-08 11:22:00,
2013-02-08 05:32:00,30.0,-99.9,30.67,NNW,328,25.0,0.0,-999,-99.99,,,-99.99,,2013-02-08 11:32:00,
2013-02-08 05:42:00,30.0,-99.9,30.05,NNW,328,25.0,0.0,-999,-99.99,,,-99.99,,2013-02-08 11:42:00,
2013-02-08 05:53:00,30.0,-99.9,30.67,NNW,328,25.0,0.0,-999,-99.99,,,-99.99,,2013-02-08 11:53:00,
2013-02-08 06:02:00,30.0,-99.9,30.05,NNW,328,25.0,0.0,-999,-99.99,,,-99.99,,2013-02-08 12:02:00,
2013-02-08 06:11:00,31.0,-99.9,30.06,NNW,332,23.0,36.0,-999,-99.99,,,-99.99,,2013-02-08 12:11:00,
2013-02-08 06:22:00,31.0,-99.9,30.06,NNW,332,23.0,36.0,-999,-99.99,,,-99.99,,2013-02-08 12:22:00,
2013-02-08 06:33:00,31.0,-99.9,30.06,NNW,332,23.0,36.0,-999,-99.99,,,-99.99,,2013-02-08 12:33:00,
2013-02-08 06:42:00,32.0,-99.9,30.08,NNW,335,28.0,0.0,-999,-99.99,,,-99.99,,2013-02-08 12:42:00,
2013-02-08 06:53:00,32.0,-99.9,30.08,NNW,335,28.0,0.0,-999,-99.99,,,-99.99,,2013-02-08 12:53:00,
2013-02-08 07:02:00,32.0,-99.9,30.08,NNW,335,28.0,0.0,-999,-99.99,,,-99.99,,2013-02-08 13:02:00,
2013-02-08 07:12:00,32.0,-99.9,30.09,NNW,341,27.0,34.0,-999,-99.99,,,-99.99,,2013-02-08 13:12:00,
2013-02-08 07:22:00,32.0,-99.9,30.73,North,351,23.0,0.0,-999,-99.99,,,-99.99,,2013-02-08 13:22:00,
2013-02-08 07:33:00,32.0,-99.9,30.11,North,351,23.0,0.0,-999,-99.99,,,-99.99,,2013-02-08 13:33:00,
2013-02-08 07:43:00,32.0,-99.9,30.11,North,351,23.0,0.0,-999,-99.99,,,-99.99,,2013-02-08 13:43:00,
2013-02-08 07:52:00,32.0,-99.9,30.73,North,351,23.0,0.0,-999,-99.99,,,-99.99,,2013-02-08 13:52:00,
2013-02-08 08:02:00,32.0,-99.9,30.73,North,351,23.0,0.0,-999,-99.99,,,-99.99,,2013-02-08 14:02:00,
2013-02-08 08:11:00,29.0,-99.9,33.26,NNE,22,-999.0,6.0,-999,-99.99,,,-99.99,,2013-02-08 14:11:00,
2013-02-08 08:22:00,33.0,-99.9,30.76,North,6,23.0,31.0,-999,-99.99,,,-99.99,,2013-02-08 14:22:00,
2013-02-08 08:33:00,33.0,-99.9,30.14,North,6,23.0,31.0,-999,-99.99,,,-99.99,,2013-02-08 14:33:00,
2013-02-08 08:42:00,33.0,-99.9,30.76,North,6,23.0,31.0,-999,-99.99,,,-99.99,,2013-02-08 14:42:00,
2013-02-08 08:52:00,33.0,-99.9,30.14,North,6,23.0,31.0,-999,-99.99,,,-99.99,,2013-02-08 14:52:00,
2013-02-08 09:02:00,33.0,-99.9,30.14,North,6,23.0,31.0,-999,-99.99,,,-99.99,,2013-02-08 15:02:00,
2013-02-08 09:12:00,33.0,-99.9,30.18,North,10,25.0,33.0,-999,-99.99,,,-99.99,,2013-02-08 15:12:00,
2013-02-08 09:22:00,33.0,-99.9,30.79,NNE,13,23.0,32.0,-999,-99.99,,,-99.99,,2013-02-08 15:22:00,
2013-02-08 09:32:00,33.0,-99.9,30.17,NNE,13,23.0,32.0,-999,-99.99,,,-99.99,,2013-02-08 15:32:00,
2013-02-08 09:42:00,33.0,-99.9,30.79,NNE,13,23.0,32.0,-999,-99.99,,,-99.99,,2013-02-08 15:42:00,
2013-02-08 09:52:00,33.0,-99.9,30.17,NNE,13,23.0,32.0,-999,-99.99,,,-99.99,,2013-02-08 15:52:00,
2013-02-08 10:02:00,33.0,-99.9,30.17,NNE,13,23.0,32.0,-999,-99.99,,,-99.99,,2013-02-08 16:02:00,
2013-02-08 10:12:00,33.0,-99.9,30.21,North,6,24.0,31.0,-999,-99.99,,,-99.99,,2013-02-08 16:12:00,
2013-02-08 10:22:00,33.0,-99.9,30.21,North,6,24.0,31.0,-999,-99.99,,,-99.99,,2013-02-08 16:22:00,
2013-02-08 10:33:00,33.0,-99.9,30.85,North,4,18.0,0.0,-999,-99.99,,,-99.99,,2013-02-08 16:33:00,
2013-02-08 10:42:00,33.0,-99.9,30.22,North,4,18.0,0.0,-999,-99.99,,,-99.99,,2013-02-08 16:42:00,
2013-02-08 10:52:00,33.0,-99.9,30.23,North,5,20.0,29.0,-999,-99.99,,,-99.99,,2013-02-08 16:52:00,
2013-02-08 11:04:00,33.0,-99.9,30.23,North,5,20.0,29.0,-999,-99.99,,,-99.99,,2013-02-08 17:04:00,
2013-02-08 11:13:00,33.0,-99.9,30.24,North,11,20.0,28.0,-999,-99.99,,,-99.99,,2013-02-08 17:13:00,
2013-02-08 11:23:00,33.0,-99.9,30.24,North,11,20.0,28.0,-999,-99.99,,,-99.99,,2013-02-08 17:23:00,
2013-02-08 11:33:00,33.0,-99.9,30.24,North,6,19.0,0.0,-999,-99.99,,,-99.99,,2013-02-08 17:33:00,
2013-02-08 11:42:00,33.0,-99.9,30.24,North,6,19.0,0.0,-999,-99.99,,,-99.99,,2013-02-08 17:42:00,
2013-02-08 11:53:00,33.0,-99.9,30.87,North,6,19.0,0.0,-999,-99.99,,,-99.99,,2013-02-08 17:53:00,
2013-02-08 12:03:00,33.0,-99.9,30.24,North,6,19.0,0.0,-999,-99.99,,,-99.99,,2013-02-08 18:03:00,
2013-02-08 12:12:00,31.0,-99.9,30.25,NNW,338,20.0,26.0,-999,-99.99,,,-99.99,,2013-02-08 18:12:00,
2013-02-08 12:25:00,30.0,-99.9,30.87,NW,326,22.0,0.0,-999,-99.99,,,-99.99,,2013-02-08 18:25:00,
2013-02-08 12:36:00,30.0,-99.9,30.24,NW,326,22.0,0.0,-999,-99.99,,,-99.99,,2013-02-08 18:36:00,
2013-02-08 12:44:00,30.0,-99.9,30.24,NW,326,22.0,0.0,-999,-99.99,,,-99.99,,2013-02-08 18:44:00,
2013-02-08 12:50:00,25.0,-99.9,29.49,NNE,21,-999.0,-999.0,-999,-99.99,,,-99.99,,2013-02-08 18:50:00,
2013-02-08 12:53:00,30.0,-99.9,30.87,NW,326,22.0,0.0,-999,-99.99,,,-99.99,,2013-02-08 18:53:00,
2013-02-08 13:02:00,30.0,-99.9,30.24,NW,326,22.0,0.0,-999,-99.99,,,-99.99,,2013-02-08 19:02:00,
2013-02-08 13:12:00,25.0,-99.9,29.49,NNE,21,-999.0,-999.0,-999,-99.99,,,-99.99,,2013-02-08 19:12:00,
2013-02-08 13:22:00,25.0,-99.9,29.49,NNE,21,-999.0,-999.0,-999,-99.99,,,-99.99,,2013-02-08 19:22:00,
2013-02-08 13:33:00,25.0,-99.9,29.49,NNE,21,-999.0,-999.0,-999,-99.99,,,-99.99,,2013-02-08 19:33:00,
2013-02-08 13:42:00,25.0,-99.9,29.49,NNE,21,-999.0,-999.0,-999,-99.99,,,-99.99,,2013-02-08 19:42:00,
2013-02-08 14:12:00,29.0,-99.9,30.27,NNW,333,22.0,30.0,-999,-99.99,,,-99.99,,2013-02-08 20:12:00,
2013-02-08 14:22:00,29.0,-99.9,30.27,NNW,333,22.0,30.0,-999,-99.99,,,-99.99,,2013-02-08 20:22:00,
2013-02-08 14:32:00,29.0,-99.9,30.90,NNW,332,19.0,26.0,-999,-99.99,,,-99.99,,2013-02-08 20:32:00,
2013-02-08 14:42:00,29.0,-99.9,30.27,NNW,332,19.0,26.0,-999,-99.99,,,-99.99,,2013-02-08 20:42:00,
2013-02-08 14:53:00,29.0,-99.9,30.27,NNW,332,19.0,26.0,-999,-99.99,,,-99.99,,2013-02-08 20:53:00,
2013-02-08 15:02:00,29.0,-99.9,30.27,NNW,332,19.0,26.0,-999,-99.99,,,-99.99,,2013-02-08 21:02:00,
2013-02-08 15:12:00,29.0,-99.9,30.28,NNW,333,21.0,28.0,-999,-99.99,,,-99.99,,2013-02-08 21:12:00,
2013-02-08 15:22:00,29.0,-99.9,30.92,NNW,334,19.0,28.0,-999,-99.99,,,-99.99,,2013-02-08 21:22:00,
2013-02-08 15:33:00,29.0,-99.9,30.29,NNW,334,19.0,28.0,-999,-99.99,,,-99.99,,2013-02-08 21:33:00,
2013-02-08 15:42:00,29.0,-99.9,30.92,NNW,334,19.0,28.0,-999,-99.99,,,-99.99,,2013-02-08 21:42:00,
2013-02-08 15:52:00,29.0,-99.9,30.29,NNW,334,19.0,28.0,-999,-99.99,,,-99.99,,2013-02-08 21:52:00,
2013-02-08 16:02:00,29.0,-99.9,30.29,NNW,334,19.0,28.0,-999,-99.99,,,-99.99,,2013-02-08 22:02:00,
2013-02-08 16:12:00,29.0,-99.9,30.30,NNW,333,19.0,24.0,-999,-99.99,,,-99.99,,2013-02-08 22:12:00,
2013-02-08 16:22:00,29.0,-99.9,30.30,NNW,333,19.0,24.0,-999,-99.99,,,-99.99,,2013-02-08 22:22:00,
2013-02-08 16:32:00,29.0,-99.9,30.30,NNW,333,19.0,24.0,-999,-99.99,,,-99.99,,2013-02-08 22:32:00,
2013-02-08 16:42:00,29.0,-99.9,30.94,NNW,332,20.0,27.0,-999,-99.99,,,-99.99,,2013-02-08 22:42:00,
2013-02-08 16:52:00,29.0,-99.9,30.31,NNW,332,20.0,27.0,-999,-99.99,,,-99.99,,2013-02-08 22:52:00,
2013-02-08 17:02:00,29.0,-99.9,30.31,NNW,332,20.0,27.0,-999,-99.99,,,-99.99,,2013-02-08 23:02:00,
2013-02-08 17:12:00,29.0,-99.9,30.32,NW,325,20.0,25.0,-999,-99.99,,,-99.99,,2013-02-08 23:12:00,
2013-02-08 17:22:00,29.0,-99.9,30.32,NW,325,20.0,25.0,-999,-99.99,,,-99.99,,2013-02-08 23:22:00,
2013-02-08 17:32:00,29.0,-99.9,30.32,NW,325,20.0,25.0,-999,-99.99,,,-99.99,,2013-02-08 23:32:00,
2013-02-08 17:42:00,29.0,-99.9,30.32,NW,325,20.0,25.0,-999,-99.99,,,-99.99,,2013-02-08 23:42:00,
2013-02-08 17:52:00,29.0,-99.9,30.33,NW,326,18.0,25.0,-999,-99.99,,,-99.99,,2013-02-08 23:52:00,
2013-02-08 18:02:00,29.0,-99.9,30.33,NW,326,18.0,25.0,-999,-99.99,,,-99.99,,2013-02-09 00:02:00,
2013-02-08 18:12:00,20.0,-99.9,29.14,NNE,14,-999.0,-999.0,-999,-99.99,,,-99.99,,2013-02-09 00:12:00,
2013-02-08 18:22:00,20.0,-99.9,29.14,NNE,14,-999.0,-999.0,-999,-99.99,,,-99.99,,2013-02-09 00:22:00,
2013-02-08 18:32:00,29.0,-99.9,30.33,NW,326,18.0,25.0,-999,-99.99,,,-99.99,,2013-02-09 00:32:00,
2013-02-08 18:42:00,29.0,-99.9,30.99,NW,315,15.0,23.0,-999,-99.99,,,-99.99,,2013-02-09 00:42:00,
2013-02-08 18:52:00,29.0,-99.9,30.36,NW,315,15.0,23.0,-999,-99.99,,,-99.99,,2013-02-09 00:52:00,
2013-02-08 19:02:00,29.0,-99.9,30.36,NW,315,15.0,23.0,-999,-99.99,,,-99.99,,2013-02-09 01:02:00,
2013-02-08 19:12:00,29.0,-99.9,30.36,NW,317,16.0,20.0,-999,-99.99,,,-99.99,,2013-02-09 01:12:00,
2013-02-08 19:22:00,29.0,-99.9,30.36,NW,315,15.0,23.0,-999,-99.99,,,-99.99,,2013-02-09 01:22:00,
2013-02-08 19:32:00,29.0,-99.9,30.36,NW,315,15.0,23.0,-999,-99.99,,,-99.99,,2013-02-09 01:32:00,
2013-02-08 19:42:00,29.0,-99.9,30.99,NW,316,16.0,20.0,-999,-99.99,,,-99.99,,2013-02-09 01:42:00,
2013-02-08 19:52:00,29.0,-99.9,30.36,NW,316,16.0,20.0,-999,-99.99,,,-99.99,,2013-02-09 01:52:00,
2013-02-08 20:02:00,29.0,-99.9,30.99,NW,316,16.0,20.0,-999,-99.99,,,-99.99,,2013-02-09 02:02:00,
2013-02-08 20:11:00,29.0,-99.9,30.36,NW,318,14.0,17.0,-999,-99.99,,,-99.99,,2013-02-09 02:11:00,
2013-02-08 20:22:00,29.0,-99.9,30.36,NW,318,14.0,17.0,-999,-99.99,,,-99.99,,2013-02-09 02:22:00,
2013-02-08 20:32:00,29.0,-99.9,30.99,NW,316,16.0,20.0,-999,-99.99,,,-99.99,,2013-02-09 02:32:00,
2013-02-08 20:42:00,29.0,-99.9,30.36,NW,316,16.0,20.0,-999,-99.99,,,-99.99,,2013-02-09 02:42:00,
2013-02-08 20:50:00,29.0,-99.9,30.37,NW,313,14.0,16.0,-999,-99.99,,,-99.99,,2013-02-09 02:50:00,
2013-02-08 20:53:00,29.0,-99.9,30.36,NW,316,16.0,20.0,-999,-99.99,,,-99.99,,2013-02-09 02:53:00,
2013-02-08 21:02:00,29.0,-99.9,30.36,NW,316,16.0,20.0,-999,-99.99,,,-99.99,,2013-02-09 03:02:00,
2013-02-08 21:11:00,29.0,-99.9,30.37,NW,313,14.0,16.0,-999,-99.99,,,-99.99,,2013-02-09 03:11:00,
2013-02-08 21:22:00,29.0,-99.9,30.37,NW,313,14.0,16.0,-999,-99.99,,,-99.99,,2013-02-09 03:22:00,
2013-02-08 21:32:00,29.0,-99.9,30.37,NW,313,14.0,16.0,-999,-99.99,,,-99.99,,2013-02-09 03:32:00,
2013-02-08 21:42:00,29.0,-99.9,30.37,NW,313,14.0,16.0,-999,-99.99,,,-99.99,,2013-02-09 03:42:00,
2013-02-08 21:50:00,29.0,-99.9,30.38,NW,310,12.0,17.0,-999,-99.99,,,-99.99,,2013-02-09 03:50:00,
2013-02-08 22:12:00,29.0,-99.9,30.38,NW,310,12.0,17.0,-999,-99.99,,,-99.99,,2013-02-09 04:12:00,
2013-02-08 22:24:00,29.0,-99.9,30.38,NW,310,12.0,17.0,-999,-99.99,,,-99.99,,2013-02-09 04:24:00,
2013-02-08 22:32:00,29.0,-99.9,30.38,NW,310,12.0,17.0,-999,-99.99,,,-99.99,,2013-02-09 04:32:00,
2013-02-08 22:43:00,29.0,-99.9,30.38,NW,310,12.0,17.0,-999,-99.99,,,-99.99,,2013-02-09 04:43:00,
2013-02-08 23:12:00,30.0,-99.9,30.37,NNW,337,7.0,12.0,-999,-99.99,,,-99.99,,2013-02-09 05:12:00,
2013-02-08 23:22:00,30.0,-99.9,30.37,NNW,337,7.0,12.0,-999,-99.99,,,-99.99,,2013-02-09 05:22:00,
2013-02-08 23:32:00,30.0,-99.9,30.37,NNW,337,7.0,12.0,-999,-99.99,,,-99.99,,2013-02-09 05:32:00,
2013-02-08 23:42:00,30.0,-99.9,30.37,NNW,337,7.0,12.0,-999,-99.99,,,-99.99,,2013-02-09 05:42:00,
2013-02-08 23:52:00,30.0,-99.9,31.00,NNW,342,8.0,20.0,-999,-99.99,,,-99.99,,2013-02-09 05:52:00,